Aérodrome :
LOGIN :

S'inscrire | Disclaimer

   EN    FR    IT 

 










Légende :    VFR   VFR Marginal   IFR   IFR Intensif   IFR Très Intensif
Visi : 
Plafond : 
>= 8 km
>= 3000ft
5 à 8 km
1000 à 3000 ft
1500m à 5 km
500 à 1000 ft
800 à 1500m
200 à 500 ft
< 800m
< 200 ft
Symboles :   Orages  Brouillard  Fortes neiges  Fortes précipitations  Vent > 20 kt
SIGMETs :   Divers  Orages  Givrage  Turbulence  Onde Orograph.  Cendres Volcan.







- Altitude de l'aérodrome : 162 ft
- Code IATA : BOD
- Voir les cartes d'approche


LFBD - Bordeaux / Merignac

DERNIER METAR :
  • 251730Z AUTO 03012KT CAVOK 29/12 Q1017 NOSIG

METARs EXPIRÉS :
  • 251700Z AUTO 04012KT 360V070 CAVOK 29/12 Q1017 NOSIG
  • 251630Z AUTO 07010KT 040V110 CAVOK 29/12 Q1017 NOSIG
  • 251600Z AUTO 05010KT 360V080 CAVOK 29/11 Q1017 NOSIG
  • 251530Z AUTO 03013KT CAVOK 29/11 Q1017 NOSIG
  • 251500Z AUTO 04011KT 360V090 CAVOK 29/11 Q1018 NOSIG

TAF TAF LFBD
Valide du 25 à 18h jusqu'au 27 à 00h UTC


251700Z 2518/2624 04010KT CAVOK
BECMG 2522/2524 03005KT
BECMG 2608/2611 10010KT TX32/2614Z TN19/2604Z
ATIS : +33 5 57 92 81 04
Pas de NOTAMs connus pour ce terrain.



MET'MAP, la Météo Aéronautique d'un coup d'oeil ! - Copyright ORBIFLY Décembre 2007 - Disclaimer

ORBIFLY MET'MAP TEAM :

Programmation & Développement : Alexandra Zaïnal
Conception & Développement : Baudouin d'Aumeries
Co-Programmation & Développement : Marc-Olivier Méhu
Soutien technique & logistique : Manuel Goepfert

Contact : metmap@orbifly.com




SOURCES & CREDITS :

   NOAA